createdAt,value
2018-03-17T00:02:26.679Z,80.13
2018-03-17T00:04:55.152Z,79.69
2018-03-17T00:07:23.531Z,79.34
2018-03-17T00:09:51.855Z,79.01
2018-03-17T00:12:20.175Z,78.64
2018-03-17T00:14:48.482Z,78.55
2018-03-17T00:17:16.810Z,79.59
2018-03-17T00:19:45.212Z,79.02
2018-03-17T00:22:13.612Z,77.69
2018-03-17T00:24:41.963Z,77.44
2018-03-17T00:27:10.346Z,77.80
2018-03-17T00:29:38.723Z,79.56
2018-03-17T00:32:07.050Z,79.23
2018-03-17T00:34:35.366Z,79.10
2018-03-17T00:37:03.723Z,80.25
2018-03-17T00:39:32.046Z,80.03
2018-03-17T00:42:00.374Z,79.73
2018-03-17T00:44:28.703Z,80.61
2018-03-17T00:46:57.068Z,80.60
2018-03-17T00:49:25.392Z,81.42
2018-03-17T00:51:53.695Z,81.17
2018-03-17T00:54:22.018Z,80.91
2018-03-17T00:56:50.342Z,80.31
2018-03-17T00:59:18.758Z,79.69
2018-03-17T01:01:47.137Z,80.26
2018-03-17T01:04:15.522Z,81.35
2018-03-17T01:06:43.894Z,81.23
2018-03-17T01:09:12.210Z,80.35
2018-03-17T01:11:40.544Z,79.16
2018-03-17T01:14:08.856Z,79.56
2018-03-17T01:16:37.183Z,79.82
2018-03-17T01:19:05.503Z,79.14
2018-03-17T01:21:33.818Z,78.31
2018-03-17T01:24:02.239Z,78.55
2018-03-17T01:26:30.542Z,79.07
2018-03-17T01:28:58.866Z,79.83
2018-03-17T01:31:27.178Z,79.63
2018-03-17T01:33:55.490Z,79.58
2018-03-17T01:36:23.816Z,79.40
2018-03-17T01:38:52.186Z,80.14
2018-03-17T01:41:20.584Z,80.45
2018-03-17T01:43:48.942Z,80.71
2018-03-17T01:46:17.258Z,80.76
2018-03-17T01:48:45.595Z,81.57
2018-03-17T01:51:13.885Z,80.67
2018-03-17T01:53:42.215Z,80.58
2018-03-17T01:56:10.532Z,80.47
2018-03-17T01:58:38.919Z,79.31
2018-03-17T02:01:07.211Z,79.23
2018-03-17T02:03:35.575Z,79.76
2018-03-17T02:06:03.890Z,79.93
2018-03-17T02:08:32.215Z,80.45
2018-03-17T02:11:00.591Z,80.15
2018-03-17T02:13:28.971Z,80.19
2018-03-17T02:15:57.302Z,80.32
2018-03-17T02:18:25.622Z,79.59
2018-03-17T02:20:53.994Z,79.49
2018-03-17T02:23:22.390Z,79.67
2018-03-17T02:25:50.764Z,81.11
2018-03-17T02:28:19.085Z,81.40
2018-03-17T02:30:47.516Z,81.46
2018-03-17T02:33:15.895Z,81.30
2018-03-17T02:35:44.232Z,81.04
2018-03-17T02:38:12.554Z,80.79
2018-03-17T02:40:41.770Z,79.81
2018-03-17T02:43:10.092Z,80.08
2018-03-17T02:45:38.505Z,80.29
2018-03-17T02:48:06.896Z,81.26
2018-03-17T02:50:35.228Z,81.19
2018-03-17T02:53:03.567Z,80.71
2018-03-17T02:55:31.895Z,79.92
2018-03-17T02:58:01.197Z,79.79
2018-03-17T03:00:29.599Z,80.23
2018-03-17T03:02:58.087Z,79.83
2018-03-17T03:05:27.360Z,80.16
2018-03-17T03:07:55.871Z,80.52
2018-03-17T03:10:24.183Z,81.19
2018-03-17T03:12:52.523Z,80.78
2018-03-17T03:15:20.896Z,80.87
2018-03-17T03:17:49.226Z,80.92
2018-03-17T03:20:17.625Z,79.62
2018-03-17T03:22:46.018Z,79.27
2018-03-17T03:25:14.404Z,79.28
2018-03-17T03:27:42.730Z,79.79
2018-03-17T03:30:11.045Z,80.48
2018-03-17T03:32:39.381Z,80.26
2018-03-17T03:35:07.735Z,79.44
2018-03-17T03:37:36.035Z,79.11
2018-03-17T03:40:04.356Z,79.14
2018-03-17T03:42:32.708Z,79.66
2018-03-17T03:45:01.015Z,80.88
2018-03-17T03:47:29.367Z,80.95
2018-03-17T03:49:57.678Z,80.40
2018-03-17T03:52:26.057Z,80.38
2018-03-17T03:54:54.429Z,80.71
2018-03-17T03:57:22.778Z,81.29
2018-03-17T03:59:51.083Z,81.12
2018-03-17T04:02:19.463Z,79.80
2018-03-17T04:04:47.797Z,79.29
2018-03-17T04:07:16.118Z,79.04
2018-03-17T04:09:44.500Z,79.14
2018-03-17T04:12:12.880Z,79.58
2018-03-17T04:14:41.262Z,79.97
2018-03-17T04:17:09.603Z,80.50
2018-03-17T04:19:37.942Z,80.82
2018-03-17T04:22:06.258Z,80.85
2018-03-17T04:24:34.590Z,79.78
2018-03-17T04:27:02.950Z,79.51
2018-03-17T04:29:31.279Z,79.49
2018-03-17T04:31:59.586Z,79.10
2018-03-17T04:34:27.910Z,79.49
2018-03-17T04:36:57.285Z,79.40
2018-03-17T04:39:25.614Z,79.78
2018-03-17T04:41:53.931Z,80.02
2018-03-17T04:44:22.251Z,80.52
2018-03-17T04:46:50.598Z,80.62
2018-03-17T04:49:18.922Z,80.26
2018-03-17T04:51:47.293Z,80.31
2018-03-17T04:54:15.606Z,80.28
2018-03-17T04:56:43.922Z,80.10
2018-03-17T04:59:12.269Z,80.74
2018-03-17T05:01:40.658Z,82.03
2018-03-17T05:04:08.987Z,82.24
2018-03-17T05:06:37.314Z,81.42
2018-03-17T05:09:05.653Z,80.98
2018-03-17T05:11:33.975Z,79.91
2018-03-17T05:14:02.334Z,79.38
2018-03-17T05:16:30.712Z,79.20
2018-03-17T05:18:59.091Z,79.70
2018-03-17T05:21:27.470Z,79.93
2018-03-17T05:23:55.799Z,81.34
2018-03-17T05:26:24.129Z,82.33
2018-03-17T05:28:52.451Z,81.68
2018-03-17T05:31:20.894Z,81.01
2018-03-17T05:33:49.264Z,80.85
2018-03-17T05:36:17.582Z,81.32
2018-03-17T05:38:45.901Z,80.77
2018-03-17T05:41:14.294Z,80.41
2018-03-17T05:43:42.603Z,80.20
2018-03-17T05:46:10.930Z,80.45
2018-03-17T05:48:39.246Z,80.20
2018-03-17T05:51:07.700Z,80.09
2018-03-17T05:53:36.008Z,80.11
2018-03-17T05:56:04.362Z,80.41
2018-03-17T05:58:32.715Z,80.55
2018-03-17T06:01:01.864Z,80.24
2018-03-17T06:03:30.218Z,80.91
2018-03-17T06:05:58.535Z,81.46
2018-03-17T06:08:26.967Z,80.10
2018-03-17T06:10:55.279Z,79.98
2018-03-17T06:13:23.610Z,81.26
2018-03-17T06:16:03.875Z,81.69
2018-03-17T06:18:32.218Z,80.75
2018-03-17T06:21:00.538Z,80.53
2018-03-17T06:23:28.880Z,81.26
2018-03-17T06:25:57.214Z,81.50
2018-03-17T06:28:25.560Z,80.96
2018-03-17T06:30:53.884Z,80.27
2018-03-17T06:33:22.223Z,79.61
2018-03-17T06:35:50.563Z,80.03
2018-03-17T06:38:18.971Z,79.77
2018-03-17T06:40:47.385Z,79.66
2018-03-17T06:43:15.703Z,79.94
2018-03-17T06:45:44.044Z,80.09
2018-03-17T06:48:12.383Z,79.93
2018-03-17T06:50:40.712Z,79.98
2018-03-17T06:53:09.027Z,79.92
2018-03-17T06:55:37.414Z,79.35
2018-03-17T06:58:05.810Z,79.29
2018-03-17T07:00:34.156Z,78.41
2018-03-17T07:03:02.550Z,77.99
2018-03-17T07:05:30.903Z,78.17
2018-03-17T07:08:00.202Z,78.01
2018-03-17T07:10:28.607Z,78.65
2018-03-17T07:12:56.942Z,78.79
2018-03-17T07:15:25.371Z,78.65
2018-03-17T07:17:53.704Z,78.64
2018-03-17T07:20:22.044Z,78.38
2018-03-17T07:22:50.425Z,78.31
2018-03-17T07:25:18.814Z,78.21
2018-03-17T07:27:47.083Z,77.97
2018-03-17T07:30:15.423Z,77.88
2018-03-17T07:32:43.751Z,77.87
2018-03-17T07:35:12.083Z,77.54
2018-03-17T07:37:40.411Z,77.31
2018-03-17T07:40:08.751Z,77.38
2018-03-17T07:42:37.083Z,76.64
2018-03-17T07:45:05.426Z,76.28
2018-03-17T07:47:33.738Z,76.71
2018-03-17T07:50:02.154Z,76.32
2018-03-17T07:52:30.500Z,75.82
2018-03-17T07:54:59.824Z,75.26
2018-03-17T07:57:28.137Z,76.14
2018-03-17T07:59:56.489Z,75.90
2018-03-17T08:02:24.904Z,76.90
2018-03-17T08:04:53.251Z,76.51
2018-03-17T08:07:21.728Z,76.65
2018-03-17T08:09:50.058Z,76.08
2018-03-17T08:12:18.500Z,76.81
2018-03-17T08:14:46.913Z,76.54
2018-03-17T08:17:15.251Z,76.67
2018-03-17T08:19:43.570Z,77.28
2018-03-17T08:22:11.915Z,77.66
2018-03-17T08:24:40.231Z,77.77
2018-03-17T08:27:08.652Z,77.76
2018-03-17T08:29:36.979Z,78.24
2018-03-17T08:32:05.308Z,78.18
2018-03-17T08:34:33.634Z,79.62
2018-03-17T08:37:02.062Z,78.95
2018-03-17T08:39:30.407Z,79.12
2018-03-17T08:41:58.745Z,78.96
2018-03-17T08:44:27.054Z,78.91
2018-03-17T08:46:55.482Z,79.13
2018-03-17T08:49:23.800Z,79.33
2018-03-17T08:51:52.135Z,79.24
2018-03-17T08:54:20.507Z,79.60
2018-03-17T08:56:48.863Z,79.78
2018-03-17T08:59:17.367Z,80.47
2018-03-17T09:01:45.699Z,80.60
2018-03-17T09:04:14.021Z,80.21
2018-03-17T09:06:42.407Z,80.23
2018-03-17T09:09:10.795Z,80.34
2018-03-17T09:11:39.131Z,80.61
2018-03-17T09:14:07.561Z,80.90
2018-03-17T09:16:35.895Z,80.21
2018-03-17T09:19:04.298Z,80.94
2018-03-17T09:21:32.642Z,81.01
2018-03-17T09:24:00.980Z,81.08
2018-03-17T09:26:29.294Z,80.88
2018-03-17T09:28:57.624Z,80.59
2018-03-17T09:31:25.960Z,80.27
2018-03-17T09:33:54.287Z,80.70
2018-03-17T09:36:22.608Z,80.41
2018-03-17T09:38:50.976Z,80.66
2018-03-17T09:41:19.315Z,80.32
2018-03-17T09:43:47.659Z,80.63
2018-03-17T09:46:16.039Z,80.21
2018-03-17T09:48:44.434Z,79.72
2018-03-17T09:51:12.798Z,79.32
2018-03-17T09:53:41.174Z,79.49
2018-03-17T09:56:09.495Z,80.53
2018-03-17T09:58:37.906Z,80.98
2018-03-17T10:01:06.218Z,80.96
2018-03-17T10:03:34.617Z,80.59
2018-03-17T10:06:02.957Z,80.75
2018-03-17T10:08:31.298Z,81.43
2018-03-17T10:10:59.617Z,81.14
2018-03-17T10:13:28.004Z,80.83
2018-03-17T10:15:57.336Z,81.00
2018-03-17T10:18:25.686Z,81.01
2018-03-17T10:20:54.052Z,82.19
2018-03-17T10:23:22.398Z,82.41
2018-03-17T10:25:50.732Z,82.29
2018-03-17T10:28:19.082Z,82.19
2018-03-17T10:30:47.407Z,81.68
2018-03-17T10:33:15.842Z,82.40
2018-03-17T10:35:44.225Z,82.43
2018-03-17T10:38:12.589Z,82.17
2018-03-17T10:40:40.917Z,82.21
2018-03-17T10:43:09.248Z,82.24
2018-03-17T10:45:37.590Z,82.24
2018-03-17T10:48:05.929Z,83.22
2018-03-17T10:50:34.286Z,83.29
2018-03-17T10:53:02.629Z,83.58
2018-03-17T10:55:31.046Z,83.78
2018-03-17T10:57:59.379Z,83.52
2018-03-17T11:00:27.724Z,83.74
2018-03-17T11:02:56.039Z,84.15
2018-03-17T11:05:24.715Z,84.07
2018-03-17T11:07:53.035Z,84.01
2018-03-17T11:10:21.458Z,83.85
2018-03-17T11:12:49.830Z,84.24
2018-03-17T11:15:18.155Z,84.42
2018-03-17T11:17:46.510Z,84.71
2018-03-17T11:20:14.842Z,84.25
2018-03-17T11:22:43.168Z,84.10
2018-03-17T11:25:11.502Z,84.09
2018-03-17T11:27:39.817Z,84.29
2018-03-17T11:30:08.256Z,83.87
2018-03-17T11:32:36.622Z,83.77
2018-03-17T11:35:04.983Z,84.12
2018-03-17T11:37:33.311Z,83.83
2018-03-17T11:40:01.637Z,83.75
2018-03-17T11:42:29.985Z,84.55
2018-03-17T11:44:58.403Z,83.85
2018-03-17T11:47:26.726Z,84.13
2018-03-17T11:49:55.054Z,83.82
2018-03-17T11:52:23.400Z,83.83
2018-03-17T11:54:51.758Z,83.57
2018-03-17T11:57:20.096Z,83.46
2018-03-17T11:59:48.425Z,83.48
2018-03-17T12:02:16.748Z,83.26
2018-03-17T12:04:45.102Z,83.19
2018-03-17T12:07:13.448Z,82.90
2018-03-17T12:09:41.816Z,82.44
2018-03-17T12:12:10.195Z,82.34
2018-03-17T12:14:38.531Z,82.08
2018-03-17T12:17:07.643Z,81.95
2018-03-17T12:19:35.959Z,81.64
2018-03-17T12:22:04.391Z,81.77
2018-03-17T12:24:32.771Z,81.96
2018-03-17T12:27:01.171Z,81.55
2018-03-17T12:29:29.532Z,81.49
2018-03-17T12:31:57.907Z,81.60
2018-03-17T12:34:26.239Z,81.84
2018-03-17T12:36:54.687Z,82.02
2018-03-17T12:39:23.001Z,82.05
2018-03-17T12:41:51.421Z,82.04
2018-03-17T12:44:19.757Z,82.13
2018-03-17T12:46:48.165Z,81.99
2018-03-17T12:49:16.550Z,82.21
2018-03-17T12:51:44.940Z,82.44
2018-03-17T12:54:13.300Z,82.53
2018-03-17T12:56:41.640Z,82.74
2018-03-17T12:59:11.055Z,82.51
2018-03-17T13:01:39.395Z,82.49
2018-03-17T13:04:07.867Z,82.57
2018-03-17T13:06:36.204Z,82.63
2018-03-17T13:09:04.570Z,82.53
2018-03-17T13:11:33.563Z,82.48
2018-03-17T13:14:01.884Z,82.19
2018-03-17T13:16:30.206Z,81.94
2018-03-17T13:18:58.558Z,82.00
2018-03-17T13:21:26.873Z,81.57
2018-03-17T13:23:55.218Z,81.65
2018-03-17T13:26:23.544Z,80.79
2018-03-17T13:28:51.944Z,80.33
2018-03-17T13:31:20.292Z,80.02
2018-03-17T13:33:48.636Z,79.72
2018-03-17T13:36:28.819Z,79.55
2018-03-17T13:38:57.157Z,79.87
2018-03-17T13:41:25.481Z,79.31
2018-03-17T13:43:53.810Z,78.93
2018-03-17T13:46:22.162Z,78.91
2018-03-17T13:48:50.506Z,78.12
2018-03-17T13:51:18.874Z,78.07
2018-03-17T13:53:47.227Z,78.18
2018-03-17T13:56:15.544Z,77.98
2018-03-17T13:58:43.924Z,78.14
2018-03-17T14:01:12.215Z,78.23
2018-03-17T14:03:40.590Z,77.91
2018-03-17T14:06:08.906Z,77.90
2018-03-17T14:08:37.271Z,77.73
2018-03-17T14:11:05.599Z,77.06
2018-03-17T14:13:34.007Z,77.11
2018-03-17T14:16:02.387Z,76.76
2018-03-17T14:18:30.730Z,76.52
2018-03-17T14:20:59.142Z,76.39
2018-03-17T14:23:27.476Z,76.55
2018-03-17T14:25:56.792Z,76.93
2018-03-17T14:28:25.113Z,76.74
2018-03-17T14:30:53.481Z,76.39
2018-03-17T14:33:21.987Z,76.24
2018-03-17T14:35:50.731Z,76.44
2018-03-17T14:38:19.150Z,75.95
2018-03-17T14:40:47.519Z,75.99
2018-03-17T14:43:15.883Z,75.63
2018-03-17T14:45:44.264Z,75.45
2018-03-17T14:48:12.627Z,75.76
2018-03-17T14:50:40.963Z,75.59
2018-03-17T14:53:09.404Z,75.50
2018-03-17T14:55:37.718Z,75.32
2018-03-17T14:58:06.111Z,75.53
2018-03-17T15:00:34.522Z,75.09
2018-03-17T15:03:02.847Z,75.14
2018-03-17T15:05:31.170Z,74.96
2018-03-17T15:07:59.554Z,74.88
2018-03-17T15:10:27.888Z,74.91
2018-03-17T15:12:56.304Z,74.83
2018-03-17T15:15:24.630Z,74.99
2018-03-17T15:17:52.958Z,75.17
2018-03-17T15:20:21.296Z,74.87
2018-03-17T15:22:49.720Z,74.84
2018-03-17T15:25:18.167Z,74.63
2018-03-17T15:27:46.507Z,74.43
2018-03-17T15:30:14.855Z,74.35
2018-03-17T15:32:43.184Z,74.38
2018-03-17T15:35:11.539Z,74.33
2018-03-17T15:37:39.869Z,74.22
2018-03-17T15:40:08.212Z,73.92
2018-03-17T15:42:36.516Z,74.00
2018-03-17T15:45:05.755Z,73.75
2018-03-17T15:47:34.116Z,74.09
2018-03-17T15:50:02.492Z,73.99
2018-03-17T15:52:30.810Z,73.91
2018-03-17T15:54:59.166Z,73.74
2018-03-17T15:57:27.531Z,73.96
2018-03-17T15:59:55.919Z,73.72
2018-03-17T16:02:25.002Z,73.66
2018-03-17T16:04:53.342Z,73.75
2018-03-17T16:07:22.356Z,73.54
2018-03-17T16:09:50.754Z,73.50
2018-03-17T16:12:19.098Z,73.21
2018-03-17T16:14:47.416Z,73.20
2018-03-17T16:17:15.763Z,73.21
2018-03-17T16:19:44.187Z,73.17
2018-03-17T16:22:12.504Z,72.86
2018-03-17T16:24:40.863Z,72.59
2018-03-17T16:27:09.295Z,72.81
2018-03-17T16:29:37.625Z,73.03
2018-03-17T16:32:05.947Z,72.83
2018-03-17T16:34:34.271Z,72.92
2018-03-17T16:37:02.607Z,73.23
2018-03-17T16:39:30.936Z,72.66
2018-03-17T16:41:59.292Z,72.84
2018-03-17T16:44:27.637Z,73.08
2018-03-17T16:46:56.025Z,73.15
2018-03-17T16:49:24.350Z,73.01
2018-03-17T16:51:52.722Z,73.07
2018-03-17T16:54:21.015Z,73.08
2018-03-17T16:56:49.348Z,72.99
2018-03-17T16:59:17.692Z,73.05
2018-03-17T17:01:46.019Z,73.04
2018-03-17T17:04:14.327Z,72.80
2018-03-17T17:06:43.676Z,72.83
2018-03-17T17:09:12.041Z,72.97
2018-03-17T17:11:40.383Z,73.02
2018-03-17T17:14:08.694Z,72.66
2018-03-17T17:16:37.073Z,73.05
2018-03-17T17:19:05.385Z,73.18
2018-03-17T17:21:33.719Z,72.89
2018-03-17T17:24:02.058Z,72.86
2018-03-17T17:26:30.498Z,72.89
2018-03-17T17:28:58.872Z,73.01
2018-03-17T17:31:27.254Z,72.86
2018-03-17T17:33:55.576Z,73.03
2018-03-17T17:36:23.910Z,73.01
2018-03-17T17:38:52.277Z,72.71
2018-03-17T17:41:20.659Z,73.06
2018-03-17T17:43:49.052Z,72.94
2018-03-17T17:46:17.498Z,72.69
2018-03-17T17:48:45.879Z,72.71
2018-03-17T17:51:14.212Z,72.78
2018-03-17T17:53:42.547Z,72.85
2018-03-17T17:56:11.025Z,72.81
2018-03-17T17:58:39.398Z,73.09
2018-03-17T18:01:07.741Z,73.37
2018-03-17T18:03:36.160Z,73.65
2018-03-17T18:06:04.468Z,73.56
2018-03-17T18:08:32.810Z,73.99
2018-03-17T18:11:01.191Z,74.27
2018-03-17T18:13:29.567Z,74.31
2018-03-17T18:15:57.892Z,74.38
2018-03-17T18:18:26.334Z,74.35
2018-03-17T18:20:54.714Z,74.70
2018-03-17T18:23:23.091Z,74.82
2018-03-17T18:25:51.415Z,75.20
2018-03-17T18:28:19.843Z,75.44
2018-03-17T18:30:48.183Z,75.59
2018-03-17T18:33:16.528Z,75.56
2018-03-17T18:35:44.859Z,75.88
2018-03-17T18:38:13.205Z,75.90
2018-03-17T18:40:41.515Z,75.94
2018-03-17T18:43:09.906Z,76.03
2018-03-17T18:45:38.227Z,76.16
2018-03-17T18:48:06.596Z,76.38
2018-03-17T18:50:34.934Z,76.28
2018-03-17T18:53:03.280Z,76.43
2018-03-17T18:55:31.696Z,76.51
2018-03-17T18:58:00.028Z,76.92
2018-03-17T19:00:28.368Z,76.72
2018-03-17T19:02:56.687Z,77.04
2018-03-17T19:05:25.103Z,77.14
2018-03-17T19:07:53.512Z,77.23
2018-03-17T19:10:21.959Z,77.44
2018-03-17T19:12:50.335Z,77.84
2018-03-17T19:15:18.671Z,77.97
2018-03-17T19:17:47.066Z,78.15
2018-03-17T19:20:15.474Z,78.43
2018-03-17T19:22:43.805Z,78.65
2018-03-17T19:25:12.238Z,79.15
2018-03-17T19:27:40.562Z,79.33
2018-03-17T19:30:08.896Z,79.68
2018-03-17T19:32:37.246Z,80.42
2018-03-17T19:35:05.653Z,80.27
2018-03-17T19:37:34.020Z,79.77
2018-03-17T19:40:02.375Z,79.19
2018-03-17T19:42:30.703Z,79.10
2018-03-17T19:44:59.047Z,78.87
2018-03-17T19:47:27.371Z,78.59
2018-03-17T19:49:55.715Z,78.50
2018-03-17T19:52:24.071Z,78.07
2018-03-17T19:54:52.390Z,78.20
2018-03-17T19:57:20.707Z,78.22
2018-03-17T19:59:49.234Z,78.25
2018-03-17T20:02:17.564Z,78.57
2018-03-17T20:04:45.986Z,77.50
2018-03-17T20:07:14.340Z,77.46
2018-03-17T20:09:42.698Z,77.68
2018-03-17T20:12:11.034Z,78.08
2018-03-17T20:14:39.353Z,77.98
2018-03-17T20:17:07.684Z,78.80
2018-03-17T20:19:36.015Z,78.71
2018-03-17T20:22:04.354Z,79.27
2018-03-17T20:24:32.703Z,79.51
2018-03-17T20:27:01.048Z,80.57
2018-03-17T20:29:29.469Z,81.05
2018-03-17T20:31:57.885Z,80.29
2018-03-17T20:34:26.278Z,80.67
2018-03-17T20:36:54.635Z,80.90
2018-03-17T20:39:23.071Z,80.66
2018-03-17T20:41:51.450Z,80.88
2018-03-17T20:44:19.830Z,80.57
2018-03-17T20:46:48.156Z,80.86
2018-03-17T20:49:16.491Z,80.75
2018-03-17T20:51:44.837Z,81.04
2018-03-17T20:54:13.251Z,80.76
2018-03-17T20:56:41.601Z,81.03
2018-03-17T20:59:10.009Z,80.64
2018-03-17T21:01:38.343Z,80.42
2018-03-17T21:04:06.782Z,80.45
2018-03-17T21:06:35.122Z,80.15
2018-03-17T21:09:03.486Z,80.02
2018-03-17T21:11:31.794Z,79.82
2018-03-17T21:14:00.118Z,79.90
2018-03-17T21:16:28.538Z,79.72
2018-03-17T21:18:56.884Z,80.08
2018-03-17T21:21:25.227Z,79.91
2018-03-17T21:23:53.575Z,79.68
2018-03-17T21:26:21.897Z,80.18
2018-03-17T21:28:50.223Z,81.24
2018-03-17T21:31:18.566Z,81.62
2018-03-17T21:33:47.138Z,81.67
2018-03-17T21:36:15.459Z,81.53
2018-03-17T21:38:43.797Z,81.25
2018-03-17T21:41:12.111Z,80.67
2018-03-17T21:43:40.443Z,80.66
2018-03-17T21:46:08.847Z,81.03
2018-03-17T21:48:37.166Z,80.99
2018-03-17T21:51:05.504Z,81.57
2018-03-17T21:53:33.914Z,81.35
2018-03-17T21:56:02.282Z,81.55
2018-03-17T21:58:30.640Z,81.67
2018-03-17T22:00:58.984Z,80.99
2018-03-17T22:03:27.338Z,81.46
2018-03-17T22:05:55.673Z,80.66
2018-03-17T22:08:23.995Z,80.61
2018-03-17T22:10:52.338Z,80.93
2018-03-17T22:13:20.651Z,81.47
2018-03-17T22:15:49.009Z,81.13
2018-03-17T22:18:17.351Z,81.56
2018-03-17T22:20:45.670Z,82.06
2018-03-17T22:23:14.031Z,81.81
2018-03-17T22:25:42.414Z,81.93
2018-03-17T22:28:10.758Z,81.60
2018-03-17T22:30:39.074Z,81.80
2018-03-17T22:33:07.450Z,81.47
2018-03-17T22:35:35.776Z,80.78
2018-03-17T22:38:05.117Z,79.44
2018-03-17T22:40:33.430Z,79.80
2018-03-17T22:43:01.784Z,78.05
2018-03-17T22:45:30.163Z,77.89
2018-03-17T22:47:58.572Z,77.91
2018-03-17T22:50:26.895Z,77.07
2018-03-17T22:52:55.248Z,77.59
2018-03-17T22:55:23.567Z,76.92
2018-03-17T22:57:51.947Z,77.19
2018-03-17T23:00:20.286Z,76.70
2018-03-17T23:02:48.623Z,77.02
2018-03-17T23:05:16.954Z,77.87
2018-03-17T23:07:45.285Z,76.41
2018-03-17T23:10:14.804Z,76.30
2018-03-17T23:12:43.138Z,76.69
2018-03-17T23:15:11.457Z,76.59
2018-03-17T23:17:39.789Z,77.10
2018-03-17T23:20:08.103Z,76.37
2018-03-17T23:22:36.438Z,76.60
2018-03-17T23:25:04.831Z,76.58
2018-03-17T23:27:33.156Z,76.09
2018-03-17T23:30:01.551Z,76.03
2018-03-17T23:32:29.878Z,76.06
2018-03-17T23:34:58.259Z,75.76
2018-03-17T23:37:26.585Z,75.52
2018-03-17T23:39:54.931Z,75.44
2018-03-17T23:42:23.275Z,75.83
2018-03-17T23:44:51.638Z,75.71
2018-03-17T23:47:19.970Z,75.92
2018-03-17T23:49:48.318Z,75.85
2018-03-17T23:52:16.650Z,75.54
2018-03-17T23:54:44.977Z,75.15
2018-03-17T23:57:13.322Z,75.30
2018-03-17T23:59:41.658Z,76.01
